createdAt,value
2023-01-02T00:00:41.373Z,67.31
2023-01-02T00:01:41.365Z,67.40
2023-01-02T00:02:41.372Z,67.43
2023-01-02T00:03:41.387Z,67.40
2023-01-02T00:04:41.300Z,67.45
2023-01-02T00:05:41.284Z,67.46
2023-01-02T00:06:41.291Z,67.47
2023-01-02T00:07:41.272Z,67.47
2023-01-02T00:08:41.278Z,67.58
2023-01-02T00:09:41.242Z,67.65
2023-01-02T00:10:41.255Z,67.77
2023-01-02T00:11:41.226Z,67.85
2023-01-02T00:12:41.219Z,67.83
2023-01-02T00:13:41.226Z,67.87
2023-01-02T00:14:41.186Z,67.87
2023-01-02T00:15:41.185Z,67.90
2023-01-02T00:16:41.174Z,67.88
2023-01-02T00:17:41.172Z,67.95
2023-01-02T00:18:41.162Z,67.97
2023-01-02T00:19:41.131Z,68.03
2023-01-02T00:20:41.135Z,67.98
2023-01-02T00:21:41.112Z,67.96
2023-01-02T00:22:41.111Z,67.93
2023-01-02T00:23:41.109Z,67.80
2023-01-02T00:24:41.093Z,67.11
2023-01-02T00:25:41.073Z,66.96
2023-01-02T00:26:41.063Z,66.72
2023-01-02T00:27:41.062Z,66.45
2023-01-02T00:28:41.070Z,66.13
2023-01-02T00:29:41.028Z,66.03
2023-01-02T00:30:41.043Z,65.86
2023-01-02T00:31:41.075Z,65.56
2023-01-02T00:32:41.019Z,64.89
2023-01-02T00:33:41.009Z,64.81
2023-01-02T00:34:40.975Z,64.47
2023-01-02T00:35:40.993Z,64.29
2023-01-02T00:36:40.966Z,64.23
2023-01-02T00:37:40.975Z,64.17
2023-01-02T00:38:40.938Z,64.07
2023-01-02T00:39:40.948Z,63.92
2023-01-02T00:40:40.903Z,63.78
2023-01-02T00:41:40.922Z,63.78
2023-01-02T00:42:41.023Z,63.40
2023-01-02T00:43:40.889Z,63.33
2023-01-02T00:44:40.861Z,63.09
2023-01-02T00:45:40.882Z,63.19
2023-01-02T00:46:40.873Z,63.06
2023-01-02T00:47:40.847Z,62.99
2023-01-02T00:48:40.886Z,62.81
2023-01-02T00:49:40.813Z,62.81
2023-01-02T00:50:40.821Z,62.64
2023-01-02T00:51:40.791Z,62.61
2023-01-02T00:52:40.780Z,62.44
2023-01-02T00:53:40.780Z,62.39
2023-01-02T00:54:40.762Z,62.09
2023-01-02T00:55:40.766Z,62.03
2023-01-02T00:56:40.770Z,62.24
2023-01-02T00:57:40.731Z,62.04
2023-01-02T00:58:40.721Z,61.88
2023-01-02T00:59:40.709Z,61.80
2023-01-02T01:00:40.772Z,61.55
2023-01-02T01:01:40.922Z,61.52
2023-01-02T01:02:40.801Z,61.40
2023-01-02T01:03:40.683Z,61.32
2023-01-02T01:04:40.661Z,61.16
2023-01-02T01:05:40.679Z,61.18
2023-01-02T01:06:40.628Z,61.15
2023-01-02T01:07:40.634Z,61.04
2023-01-02T01:08:40.605Z,60.87
2023-01-02T01:09:40.594Z,60.91
2023-01-02T01:10:40.613Z,60.98
2023-01-02T01:11:40.601Z,60.87
2023-01-02T01:12:40.574Z,60.81
2023-01-02T01:13:40.574Z,60.80
2023-01-02T01:14:40.541Z,60.81
2023-01-02T01:15:40.571Z,60.91
2023-01-02T01:16:40.550Z,60.81
2023-01-02T01:17:40.515Z,60.71
2023-01-02T01:18:40.511Z,60.79
2023-01-02T01:19:40.496Z,60.80
2023-01-02T01:20:40.493Z,60.59
2023-01-02T01:21:40.499Z,60.44
2023-01-02T01:22:40.460Z,60.44
2023-01-02T01:23:40.451Z,60.55
2023-01-02T01:24:40.449Z,60.52
2023-01-02T01:25:40.424Z,60.44
2023-01-02T01:26:40.431Z,60.42
2023-01-02T01:27:40.438Z,60.34
2023-01-02T01:28:40.404Z,60.09
2023-01-02T01:29:40.384Z,59.92
2023-01-02T01:30:40.376Z,59.88
2023-01-02T01:31:40.378Z,59.89
2023-01-02T01:32:40.383Z,59.83
2023-01-02T01:33:40.345Z,59.94
2023-01-02T01:34:40.327Z,60.11
2023-01-02T01:35:40.337Z,60.05
2023-01-02T01:36:40.311Z,59.96
2023-01-02T01:37:40.319Z,59.96
2023-01-02T01:38:40.315Z,59.96
2023-01-02T01:39:40.279Z,59.80
2023-01-02T01:40:40.270Z,59.89
2023-01-02T01:41:40.265Z,59.93
2023-01-02T01:42:40.250Z,59.96
2023-01-02T01:43:40.255Z,60.03
2023-01-02T01:44:40.221Z,59.99
2023-01-02T01:45:40.245Z,59.98
2023-01-02T01:46:40.206Z,60.20
2023-01-02T01:47:40.190Z,60.06
2023-01-02T01:48:40.201Z,60.12
2023-01-02T01:49:40.188Z,59.93
2023-01-02T01:50:40.168Z,59.94
2023-01-02T01:51:40.153Z,60.11
2023-01-02T01:52:40.136Z,60.13
2023-01-02T01:53:40.120Z,59.98
2023-01-02T01:54:40.142Z,59.98
2023-01-02T01:55:40.101Z,60.14
2023-01-02T01:56:40.103Z,60.09
2023-01-02T01:57:40.075Z,60.08
2023-01-02T01:58:40.063Z,60.11
2023-01-02T01:59:40.072Z,60.05
2023-01-02T02:00:40.109Z,59.99
2023-01-02T02:01:40.117Z,59.99
2023-01-02T02:02:40.136Z,59.97
2023-01-02T02:03:40.013Z,59.83
2023-01-02T02:04:40.021Z,59.87
2023-01-02T02:05:39.992Z,59.71
2023-01-02T02:06:39.989Z,59.48
2023-01-02T02:07:39.965Z,59.43
2023-01-02T02:08:39.975Z,59.33
2023-01-02T02:09:39.968Z,59.38
2023-01-02T02:10:39.936Z,59.12
2023-01-02T02:11:39.948Z,58.90
2023-01-02T02:12:39.920Z,59.11
2023-01-02T02:13:39.913Z,58.98
2023-01-02T02:14:39.902Z,58.96
2023-01-02T02:15:39.920Z,58.89
2023-01-02T02:16:39.898Z,58.88
2023-01-02T02:17:39.864Z,58.71
2023-01-02T02:18:39.857Z,58.61
2023-01-02T02:19:39.853Z,58.63
2023-01-02T02:20:39.862Z,58.65
2023-01-02T02:21:39.821Z,58.45
2023-01-02T02:22:39.814Z,58.37
2023-01-02T02:23:39.797Z,58.29
2023-01-02T02:24:39.789Z,58.25
2023-01-02T02:25:39.795Z,58.11
2023-01-02T02:26:39.792Z,58.10
2023-01-02T02:27:39.752Z,58.02
2023-01-02T02:28:39.750Z,58.06
2023-01-02T02:29:39.731Z,58.02
2023-01-02T02:30:39.722Z,58.02
2023-01-02T02:31:39.762Z,58.04
2023-01-02T02:32:39.718Z,58.07
2023-01-02T02:33:39.712Z,57.94
2023-01-02T02:34:39.707Z,58.15
2023-01-02T02:35:39.672Z,57.97
2023-01-02T02:36:39.657Z,57.96
2023-01-02T02:37:39.665Z,57.80
2023-01-02T02:38:39.637Z,57.97
2023-01-02T02:39:39.623Z,58.04
2023-01-02T02:40:39.627Z,58.07
2023-01-02T02:41:39.611Z,58.00
2023-01-02T02:42:39.610Z,57.87
2023-01-02T02:43:39.582Z,57.85
2023-01-02T02:44:39.572Z,57.82
2023-01-02T02:45:39.570Z,57.87
2023-01-02T02:46:39.567Z,57.81
2023-01-02T02:47:39.543Z,57.76
2023-01-02T02:48:46.193Z,57.77
2023-01-02T02:49:40.525Z,57.83
2023-01-02T02:50:39.513Z,57.69
2023-01-02T02:51:39.524Z,57.80
2023-01-02T02:52:39.486Z,57.63
2023-01-02T02:53:39.476Z,57.60
2023-01-02T02:54:39.470Z,57.81
2023-01-02T02:55:39.450Z,57.68
2023-01-02T02:56:39.474Z,57.58
2023-01-02T02:57:39.453Z,57.47
2023-01-02T02:58:39.423Z,57.42
2023-01-02T02:59:39.427Z,57.38
2023-01-02T03:00:39.418Z,57.20
2023-01-02T03:01:39.607Z,57.18
2023-01-02T03:02:39.475Z,57.21
2023-01-02T03:03:39.377Z,57.14
2023-01-02T03:04:39.380Z,57.16
2023-01-02T03:05:39.363Z,57.07
2023-01-02T03:06:39.326Z,57.09
2023-01-02T03:07:39.331Z,56.89
2023-01-02T03:08:39.328Z,56.94
2023-01-02T03:09:39.317Z,57.02
2023-01-02T03:10:39.302Z,56.91
2023-01-02T03:11:39.292Z,57.16
2023-01-02T03:12:39.270Z,56.99
2023-01-02T03:13:41.708Z,57.04
2023-01-02T03:14:39.241Z,57.05
2023-01-02T03:15:39.253Z,57.15
2023-01-02T03:16:39.286Z,57.14
2023-01-02T03:17:39.217Z,57.14
2023-01-02T03:18:39.226Z,57.23
2023-01-02T03:19:39.189Z,57.37
2023-01-02T03:20:39.201Z,57.29
2023-01-02T03:21:39.168Z,57.33
2023-01-02T03:22:39.162Z,57.30
2023-01-02T03:23:39.165Z,57.31
2023-01-02T03:24:39.144Z,57.19
2023-01-02T03:25:39.155Z,57.23
2023-01-02T03:26:39.132Z,57.17
2023-01-02T03:27:39.126Z,57.11
2023-01-02T03:28:39.107Z,57.05
2023-01-02T03:29:39.106Z,57.09
2023-01-02T03:30:39.115Z,57.11
2023-01-02T03:31:39.070Z,57.25
2023-01-02T03:32:39.072Z,57.24
2023-01-02T03:33:39.037Z,57.17
2023-01-02T03:34:39.043Z,57.30
2023-01-02T03:35:39.025Z,57.27
2023-01-02T03:36:39.028Z,57.40
2023-01-02T03:37:38.998Z,57.52
2023-01-02T03:38:39.025Z,57.58
2023-01-02T03:39:38.973Z,57.75
2023-01-02T03:40:38.993Z,58.00
2023-01-02T03:41:38.969Z,57.90
2023-01-02T03:42:38.965Z,58.06
2023-01-02T03:43:38.941Z,58.01
2023-01-02T03:44:38.928Z,57.86
2023-01-02T03:45:38.918Z,57.91
2023-01-02T03:46:38.914Z,58.13
2023-01-02T03:47:38.887Z,58.11
2023-01-02T03:48:38.874Z,58.12
2023-01-02T03:49:38.888Z,58.10
2023-01-02T03:50:38.857Z,58.13
2023-01-02T03:51:38.849Z,58.19
2023-01-02T03:52:38.851Z,58.14
2023-01-02T03:53:38.823Z,58.27
2023-01-02T03:54:38.833Z,58.22
2023-01-02T03:55:38.818Z,58.25
2023-01-02T03:56:38.787Z,58.23
2023-01-02T03:57:38.787Z,58.38
2023-01-02T03:58:38.788Z,58.46
2023-01-02T03:59:38.791Z,58.59
2023-01-02T04:00:38.767Z,58.68
2023-01-02T04:01:38.900Z,58.66
2023-01-02T04:02:38.849Z,58.79
2023-01-02T04:03:38.724Z,58.87
2023-01-02T04:04:38.715Z,58.95
2023-01-02T04:05:38.695Z,58.94
2023-01-02T04:06:38.692Z,58.93
2023-01-02T04:07:38.696Z,59.02
2023-01-02T04:08:38.756Z,58.95
2023-01-02T04:09:38.672Z,59.13
2023-01-02T04:10:38.646Z,59.16
2023-01-02T04:11:38.628Z,59.26
2023-01-02T04:12:38.630Z,59.38
2023-01-02T04:13:38.605Z,59.43
2023-01-02T04:14:38.623Z,59.44
2023-01-02T04:15:38.656Z,59.58
2023-01-02T04:16:38.573Z,59.65
2023-01-02T04:17:38.571Z,59.74
2023-01-02T04:18:44.617Z,59.75
2023-01-02T04:19:39.624Z,59.71
2023-01-02T04:20:38.547Z,59.83
2023-01-02T04:21:38.527Z,59.74
2023-01-02T04:22:38.524Z,59.80
2023-01-02T04:23:38.502Z,59.97
2023-01-02T04:24:38.522Z,59.92
2023-01-02T04:25:38.489Z,59.43
2023-01-02T04:26:38.475Z,59.10
2023-01-02T04:27:38.485Z,58.70
2023-01-02T04:28:38.444Z,58.66
2023-01-02T04:29:38.435Z,58.66
2023-01-02T04:30:38.464Z,58.72
2023-01-02T04:31:38.421Z,58.47
2023-01-02T04:32:38.410Z,58.26
2023-01-02T04:33:38.394Z,58.10
2023-01-02T04:34:38.400Z,58.14
2023-01-02T04:35:38.373Z,58.17
2023-01-02T04:36:38.371Z,57.87
2023-01-02T04:37:38.363Z,57.75
2023-01-02T04:38:38.363Z,57.80
2023-01-02T04:39:38.368Z,57.88
2023-01-02T04:40:38.325Z,57.77
2023-01-02T04:41:38.319Z,57.73
2023-01-02T04:42:38.288Z,57.66
2023-01-02T04:43:38.286Z,57.66
2023-01-02T04:44:38.300Z,57.47
2023-01-02T04:45:38.286Z,57.33
2023-01-02T04:46:38.323Z,57.26
2023-01-02T04:47:38.239Z,57.26
2023-01-02T04:48:38.242Z,57.39
2023-01-02T04:49:38.244Z,57.37
2023-01-02T04:50:38.239Z,57.23
2023-01-02T04:51:38.204Z,57.01
2023-01-02T04:52:38.198Z,56.94
2023-01-02T04:53:38.178Z,56.83
2023-01-02T04:54:38.204Z,56.90
2023-01-02T04:55:38.189Z,56.84
2023-01-02T04:56:38.168Z,56.72
2023-01-02T04:57:38.203Z,56.86
2023-01-02T04:58:38.142Z,56.85
2023-01-02T04:59:38.158Z,56.93
2023-01-02T05:00:38.109Z,56.88
2023-01-02T05:01:38.189Z,56.86
2023-01-02T05:02:38.202Z,56.97
2023-01-02T05:03:38.114Z,57.02
2023-01-02T05:04:38.074Z,57.07
2023-01-02T05:05:38.055Z,57.13
2023-01-02T05:06:38.042Z,57.21
2023-01-02T05:07:38.031Z,57.25
2023-01-02T05:08:38.072Z,57.30
2023-01-02T05:09:38.022Z,57.27
2023-01-02T05:10:37.999Z,57.30
2023-01-02T05:11:37.986Z,57.42
2023-01-02T05:12:37.987Z,57.49
2023-01-02T05:13:37.961Z,57.58
2023-01-02T05:14:37.968Z,57.65
2023-01-02T05:15:38.006Z,57.79
2023-01-02T05:16:37.955Z,57.86
2023-01-02T05:17:37.934Z,57.92
2023-01-02T05:18:37.944Z,58.02
2023-01-02T05:19:37.936Z,58.08
2023-01-02T05:20:37.917Z,58.17
2023-01-02T05:21:37.906Z,58.19
2023-01-02T05:22:37.866Z,58.20
2023-01-02T05:23:37.878Z,58.21
2023-01-02T05:24:37.876Z,58.22
2023-01-02T05:25:37.853Z,58.23
2023-01-02T05:26:37.865Z,58.30
2023-01-02T05:27:37.813Z,58.36
2023-01-02T05:28:38.836Z,58.43
2023-01-02T05:29:37.788Z,58.47
2023-01-02T05:30:37.791Z,58.55
2023-01-02T05:31:37.848Z,58.56
2023-01-02T05:32:37.756Z,58.59
2023-01-02T05:33:37.750Z,58.62
2023-01-02T05:34:37.755Z,58.67
2023-01-02T05:35:37.774Z,58.60
2023-01-02T05:36:37.723Z,58.47
2023-01-02T05:37:37.712Z,58.45
2023-01-02T05:38:37.706Z,58.60
2023-01-02T05:39:37.685Z,58.60
2023-01-02T05:40:37.736Z,58.50
2023-01-02T05:41:37.674Z,58.53
2023-01-02T05:42:37.667Z,58.52
2023-01-02T05:43:37.653Z,58.36
2023-01-02T05:44:37.627Z,58.37
2023-01-02T05:45:37.639Z,58.15
2023-01-02T05:46:37.648Z,58.11
2023-01-02T05:47:37.601Z,58.01
2023-01-02T05:48:37.594Z,57.93
2023-01-02T05:49:37.576Z,57.92
2023-01-02T05:50:37.580Z,57.81
2023-01-02T05:51:37.589Z,57.78
2023-01-02T05:52:43.291Z,57.82
2023-01-02T05:53:38.526Z,57.74
2023-01-02T05:54:37.516Z,57.71
2023-01-02T05:55:37.515Z,57.71
2023-01-02T05:56:37.500Z,57.73
2023-01-02T05:57:37.508Z,57.82
2023-01-02T05:58:37.491Z,57.94
2023-01-02T05:59:37.477Z,57.86
2023-01-02T06:00:37.470Z,57.82
2023-01-02T06:01:37.603Z,57.85
2023-01-02T06:02:37.600Z,57.97
2023-01-02T06:03:37.467Z,58.08
2023-01-02T06:04:37.406Z,58.08
2023-01-02T06:05:37.397Z,58.15
2023-01-02T06:06:37.403Z,58.08
2023-01-02T06:07:37.375Z,58.08
2023-01-02T06:08:37.371Z,58.22
2023-01-02T06:09:37.367Z,58.20
2023-01-02T06:10:37.350Z,58.27
2023-01-02T06:11:37.351Z,58.32
2023-01-02T06:12:37.335Z,58.40
2023-01-02T06:13:37.307Z,58.38
2023-01-02T06:14:37.311Z,58.28
2023-01-02T06:15:37.297Z,58.40
2023-01-02T06:16:37.336Z,58.56
2023-01-02T06:17:37.277Z,58.60
2023-01-02T06:18:37.264Z,58.58
2023-01-02T06:19:37.284Z,58.57
2023-01-02T06:20:37.259Z,58.68
2023-01-02T06:21:37.235Z,58.71
2023-01-02T06:22:37.235Z,58.78
2023-01-02T06:23:37.208Z,58.98
2023-01-02T06:24:37.196Z,59.12
2023-01-02T06:25:37.199Z,59.08
2023-01-02T06:26:37.205Z,59.11
2023-01-02T06:27:37.197Z,59.13
2023-01-02T06:28:37.156Z,58.97
2023-01-02T06:29:37.140Z,59.02
2023-01-02T06:30:37.128Z,58.98
2023-01-02T06:31:39.856Z,58.86
2023-01-02T06:32:37.108Z,58.33
2023-01-02T06:33:37.118Z,58.31
2023-01-02T06:34:37.580Z,58.43
2023-01-02T06:35:37.090Z,58.34
2023-01-02T06:36:37.070Z,58.43
2023-01-02T06:37:37.077Z,58.40
2023-01-02T06:38:37.048Z,58.38
2023-01-02T06:39:37.395Z,58.15
2023-01-02T06:40:37.024Z,58.13
2023-01-02T06:41:37.069Z,58.09
2023-01-02T06:42:37.020Z,58.02
2023-01-02T06:43:37.046Z,57.92
2023-01-02T06:44:36.990Z,57.90
2023-01-02T06:45:37.057Z,58.01
2023-01-02T06:46:36.959Z,58.08
2023-01-02T06:47:36.968Z,58.17
2023-01-02T06:48:36.935Z,58.27
2023-01-02T06:49:36.919Z,58.35
2023-01-02T06:50:36.934Z,58.27
2023-01-02T06:51:36.927Z,58.22
2023-01-02T06:52:36.901Z,58.20
2023-01-02T06:53:36.901Z,58.29
2023-01-02T06:54:36.871Z,58.20
2023-01-02T06:55:39.578Z,58.25
2023-01-02T06:56:36.865Z,58.31
2023-01-02T06:57:36.836Z,58.30
2023-01-02T06:58:36.854Z,58.28
2023-01-02T06:59:36.822Z,58.34
2023-01-02T07:00:36.867Z,58.41
2023-01-02T07:01:36.933Z,58.44
2023-01-02T07:02:36.868Z,58.44
2023-01-02T07:03:36.775Z,58.31
2023-01-02T07:04:36.790Z,58.23
2023-01-02T07:05:36.766Z,58.13
2023-01-02T07:06:36.790Z,57.86
2023-01-02T07:07:36.741Z,57.69
2023-01-02T07:08:36.721Z,57.48
2023-01-02T07:09:36.734Z,57.28
2023-01-02T07:10:36.706Z,57.15
2023-01-02T07:11:36.685Z,57.06
2023-01-02T07:12:36.695Z,57.02
2023-01-02T07:13:36.663Z,56.91
2023-01-02T07:14:36.654Z,56.90
2023-01-02T07:15:36.662Z,56.78
2023-01-02T07:16:36.698Z,56.68
2023-01-02T07:17:36.635Z,56.46
2023-01-02T07:18:36.658Z,56.37
2023-01-02T07:19:36.610Z,56.22
2023-01-02T07:20:36.594Z,56.03
2023-01-02T07:21:36.581Z,55.97
2023-01-02T07:22:36.585Z,55.70
2023-01-02T07:23:36.578Z,55.53
2023-01-02T07:24:36.559Z,55.51
2023-01-02T07:25:42.442Z,55.22
2023-01-02T07:26:37.539Z,55.16
2023-01-02T07:27:36.526Z,55.19
2023-01-02T07:28:36.544Z,55.13
2023-01-02T07:29:36.505Z,55.17
2023-01-02T07:30:36.482Z,55.20
2023-01-02T07:31:36.510Z,55.07
2023-01-02T07:32:36.497Z,54.94
2023-01-02T07:33:36.447Z,54.89
2023-01-02T07:34:36.461Z,54.90
2023-01-02T07:35:36.452Z,54.88
2023-01-02T07:36:36.435Z,54.85
2023-01-02T07:37:36.405Z,54.64
2023-01-02T07:38:36.455Z,54.57
2023-01-02T07:39:36.396Z,54.58
2023-01-02T07:40:36.378Z,54.47
2023-01-02T07:41:36.368Z,54.36
2023-01-02T07:42:36.362Z,54.50
2023-01-02T07:43:36.344Z,54.33
2023-01-02T07:44:36.351Z,54.31
2023-01-02T07:45:36.424Z,54.32
2023-01-02T07:46:36.370Z,54.29
2023-01-02T07:47:36.310Z,54.28
2023-01-02T07:48:36.281Z,54.43
2023-01-02T07:49:36.292Z,54.72
2023-01-02T07:50:36.266Z,54.57
2023-01-02T07:51:36.281Z,54.64
2023-01-02T07:52:36.287Z,54.68
2023-01-02T07:53:36.246Z,54.57
2023-01-02T07:54:36.246Z,54.68
2023-01-02T07:55:36.223Z,54.73
2023-01-02T07:56:36.224Z,54.72
2023-01-02T07:57:36.193Z,54.79
2023-01-02T07:58:36.242Z,54.87
2023-01-02T07:59:36.193Z,54.94
2023-01-02T08:00:36.174Z,55.01
2023-01-02T08:01:36.230Z,55.08
2023-01-02T08:02:36.203Z,55.09
2023-01-02T08:03:36.177Z,54.97
2023-01-02T08:04:36.219Z,54.83
2023-01-02T08:05:36.111Z,54.73
2023-01-02T08:06:36.121Z,54.66
2023-01-02T08:07:42.784Z,54.65
2023-01-02T08:08:37.090Z,54.59
2023-01-02T08:09:36.094Z,54.57
2023-01-02T08:10:36.083Z,54.38
2023-01-02T08:11:36.054Z,54.49
2023-01-02T08:12:36.033Z,54.51
2023-01-02T08:13:36.025Z,54.51
2023-01-02T08:14:36.035Z,54.46
2023-01-02T08:15:36.015Z,54.53
2023-01-02T08:16:36.052Z,54.52
2023-01-02T08:17:35.978Z,54.53
2023-01-02T08:18:36.010Z,54.39
2023-01-02T08:19:36.045Z,54.32
2023-01-02T08:20:35.982Z,54.46
2023-01-02T08:21:35.940Z,54.43
2023-01-02T08:22:35.933Z,54.43
2023-01-02T08:23:35.913Z,54.40
2023-01-02T08:24:35.927Z,54.52
2023-01-02T08:25:35.891Z,54.43
2023-01-02T08:26:35.891Z,54.47
2023-01-02T08:27:35.883Z,54.52
2023-01-02T08:28:35.864Z,54.52
2023-01-02T08:29:35.867Z,54.54
2023-01-02T08:30:35.923Z,54.58
2023-01-02T08:31:40.018Z,54.54
2023-01-02T08:32:36.818Z,54.34
2023-01-02T08:33:35.801Z,54.17
2023-01-02T08:34:35.812Z,54.32
2023-01-02T08:35:38.748Z,54.26
2023-01-02T08:36:35.784Z,54.34
2023-01-02T08:37:35.767Z,54.37
2023-01-02T08:38:35.755Z,54.37
2023-01-02T08:39:35.764Z,54.40
2023-01-02T08:40:35.734Z,54.47
2023-01-02T08:41:35.722Z,54.27
2023-01-02T08:42:35.718Z,54.34
2023-01-02T08:43:35.706Z,54.35
2023-01-02T08:44:35.714Z,54.42
2023-01-02T08:45:35.711Z,54.35
2023-01-02T08:46:42.396Z,54.33
2023-01-02T08:47:36.662Z,54.25
2023-01-02T08:48:35.651Z,54.29
2023-01-02T08:49:35.641Z,54.26
2023-01-02T08:50:35.642Z,54.31
2023-01-02T08:51:35.614Z,54.27
2023-01-02T08:52:35.614Z,54.06
2023-01-02T08:53:35.602Z,54.04
2023-01-02T08:54:35.609Z,54.18
2023-01-02T08:55:35.593Z,54.13
2023-01-02T08:56:35.563Z,54.18
2023-01-02T08:57:35.549Z,54.28
2023-01-02T08:58:35.580Z,54.31
2023-01-02T08:59:35.560Z,54.34
2023-01-02T09:00:35.595Z,54.31
2023-01-02T09:01:35.754Z,54.33
2023-01-02T09:02:35.766Z,54.38
2023-01-02T09:03:35.528Z,54.53
2023-01-02T09:04:35.488Z,54.41
2023-01-02T09:05:35.472Z,54.29
2023-01-02T09:06:35.479Z,54.29
2023-01-02T09:07:35.448Z,54.22
2023-01-02T09:08:35.439Z,54.25
2023-01-02T09:09:35.414Z,54.16
2023-01-02T09:10:35.412Z,54.04
2023-01-02T09:11:35.418Z,54.05
2023-01-02T09:12:35.390Z,53.91
2023-01-02T09:13:35.382Z,53.87
2023-01-02T09:14:35.370Z,53.87
2023-01-02T09:15:35.438Z,53.82
2023-01-02T09:16:35.363Z,53.74
2023-01-02T09:17:35.345Z,53.77
2023-01-02T09:18:35.326Z,53.73
2023-01-02T09:19:35.321Z,53.42
2023-01-02T09:20:35.326Z,53.45
2023-01-02T09:21:35.290Z,53.42
2023-01-02T09:22:35.308Z,53.34
2023-01-02T09:23:35.287Z,53.43
2023-01-02T09:24:35.254Z,53.25
2023-01-02T09:25:35.301Z,53.11
2023-01-02T09:26:35.273Z,53.18
2023-01-02T09:27:35.247Z,53.23
2023-01-02T09:28:35.216Z,53.89
2023-01-02T09:29:35.213Z,53.83
2023-01-02T09:30:35.279Z,53.49
2023-01-02T09:31:35.265Z,53.37
2023-01-02T09:32:35.198Z,53.32
2023-01-02T09:33:35.218Z,53.32
2023-01-02T09:34:35.190Z,53.44
2023-01-02T09:35:35.187Z,53.52
2023-01-02T09:36:35.207Z,53.63
2023-01-02T09:37:35.196Z,53.66
2023-01-02T09:38:35.137Z,53.72
2023-01-02T09:39:35.098Z,53.74
2023-01-02T09:40:35.109Z,53.72
2023-01-02T09:41:35.104Z,53.70
2023-01-02T09:42:35.073Z,53.75
2023-01-02T09:43:35.054Z,53.87
2023-01-02T09:44:35.058Z,53.99
2023-01-02T09:45:35.051Z,54.11
2023-01-02T09:46:35.117Z,54.26
2023-01-02T09:47:35.028Z,54.43
2023-01-02T09:48:35.012Z,54.57
2023-01-02T09:49:34.997Z,54.76
2023-01-02T09:50:34.975Z,54.89
2023-01-02T09:51:34.995Z,55.56
2023-01-02T09:52:34.977Z,55.98
2023-01-02T09:53:34.953Z,56.59
2023-01-02T09:54:34.969Z,55.99
2023-01-02T09:55:34.949Z,55.57
2023-01-02T09:56:34.941Z,55.43
2023-01-02T09:57:35.089Z,55.12
2023-01-02T09:58:34.895Z,54.96
2023-01-02T09:59:34.906Z,54.56
2023-01-02T10:00:34.861Z,54.39
2023-01-02T10:01:34.907Z,53.96
2023-01-02T10:02:34.933Z,53.79
2023-01-02T10:03:34.958Z,53.80
2023-01-02T10:04:34.832Z,53.59
2023-01-02T10:05:34.836Z,53.60
2023-01-02T10:06:34.824Z,53.57
2023-01-02T10:07:34.850Z,53.62
2023-01-02T10:08:34.845Z,53.51
2023-01-02T10:09:34.792Z,53.49
2023-01-02T10:10:34.805Z,53.56
2023-01-02T10:11:34.773Z,53.60
2023-01-02T10:12:34.789Z,53.61
2023-01-02T10:14:16.671Z,53.68
2023-01-02T10:14:42.157Z,53.78
2023-01-02T10:15:35.740Z,53.88
2023-01-02T10:16:34.715Z,54.06
2023-01-02T10:17:34.740Z,54.13
2023-01-02T10:18:41.708Z,54.19
2023-01-02T10:19:34.682Z,54.31
2023-01-02T10:20:34.703Z,54.37
2023-01-02T10:21:34.648Z,54.51
2023-01-02T10:22:34.653Z,54.67
2023-01-02T10:23:34.657Z,54.91
2023-01-02T10:24:34.639Z,55.06
2023-01-02T10:25:34.608Z,55.16
2023-01-02T10:26:34.595Z,55.23
2023-01-02T10:27:34.590Z,55.24
2023-01-02T10:28:34.573Z,55.07
2023-01-02T10:29:34.577Z,55.11
2023-01-02T10:30:34.548Z,55.20
2023-01-02T10:31:34.579Z,55.29
2023-01-02T10:32:34.524Z,55.38
2023-01-02T10:33:34.536Z,55.45
2023-01-02T10:34:34.536Z,55.57
2023-01-02T10:35:34.527Z,55.39
2023-01-02T10:36:34.497Z,55.29
2023-01-02T10:37:34.502Z,55.13
2023-01-02T10:38:34.497Z,55.06
2023-01-02T10:39:34.501Z,54.98
2023-01-02T10:40:34.505Z,55.01
2023-01-02T10:41:34.498Z,55.07
2023-01-02T10:42:34.463Z,54.99
2023-01-02T10:43:34.443Z,54.87
2023-01-02T10:44:34.421Z,54.88
2023-01-02T10:45:34.447Z,54.97
2023-01-02T10:46:34.455Z,55.01
2023-01-02T10:47:34.399Z,55.06
2023-01-02T10:48:34.359Z,55.04
2023-01-02T10:49:34.367Z,55.07
2023-01-02T10:50:34.382Z,55.15
2023-01-02T10:51:34.336Z,55.02
2023-01-02T10:52:34.338Z,54.85
2023-01-02T10:53:35.058Z,54.79
2023-01-02T10:54:34.336Z,54.80
2023-01-02T10:55:34.305Z,54.75
2023-01-02T10:56:34.320Z,54.76
2023-01-02T10:57:34.267Z,54.64
2023-01-02T10:58:34.277Z,54.41
2023-01-02T10:59:34.255Z,54.23
2023-01-02T11:00:34.357Z,54.14
2023-01-02T11:01:34.374Z,54.06
2023-01-02T11:02:34.281Z,53.97
2023-01-02T11:03:34.194Z,54.04
2023-01-02T11:04:34.183Z,54.20
2023-01-02T11:05:34.187Z,54.22
2023-01-02T11:06:39.320Z,54.34
2023-01-02T11:07:35.150Z,54.41
2023-01-02T11:08:34.132Z,54.53
2023-01-02T11:09:34.127Z,54.51
2023-01-02T11:10:34.142Z,54.66
2023-01-02T11:11:34.109Z,54.86
2023-01-02T11:12:34.097Z,54.94
2023-01-02T11:13:34.082Z,55.00
2023-01-02T11:14:34.074Z,55.13
2023-01-02T11:15:34.082Z,55.19
2023-01-02T11:16:34.095Z,55.23
2023-01-02T11:17:34.039Z,55.33
2023-01-02T11:18:34.034Z,55.31
2023-01-02T11:19:34.020Z,55.16
2023-01-02T11:20:34.028Z,55.07
2023-01-02T11:21:34.002Z,55.04
2023-01-02T11:22:34.005Z,54.98
2023-01-02T11:23:33.983Z,54.88
2023-01-02T11:24:33.965Z,54.96
2023-01-02T11:25:33.995Z,54.96
2023-01-02T11:26:33.941Z,55.07
2023-01-02T11:27:33.952Z,55.19
2023-01-02T11:28:33.922Z,54.90
2023-01-02T11:29:33.917Z,54.60
2023-01-02T11:30:33.905Z,54.47
2023-01-02T11:31:33.954Z,54.40
2023-01-02T11:32:33.875Z,54.15
2023-01-02T11:33:33.862Z,54.09
2023-01-02T11:34:33.868Z,54.07
2023-01-02T11:35:33.862Z,54.06
2023-01-02T11:36:33.832Z,53.91
2023-01-02T11:37:33.823Z,53.83
2023-01-02T11:38:33.812Z,53.88
2023-01-02T11:39:33.822Z,53.74
2023-01-02T11:40:33.818Z,53.77
2023-01-02T11:41:33.780Z,53.74
2023-01-02T11:42:33.762Z,53.88
2023-01-02T11:43:33.762Z,53.82
2023-01-02T11:44:33.753Z,53.81
2023-01-02T11:45:33.819Z,53.61
2023-01-02T11:46:33.733Z,53.69
2023-01-02T11:47:33.722Z,53.77
2023-01-02T11:48:33.709Z,53.62
2023-01-02T11:49:33.682Z,53.58
2023-01-02T11:50:33.727Z,53.46
2023-01-02T11:51:33.678Z,53.33
2023-01-02T11:52:33.674Z,53.32
2023-01-02T11:53:33.676Z,53.34
2023-01-02T11:54:33.644Z,53.21
2023-01-02T11:55:33.798Z,53.17
2023-01-02T11:56:33.619Z,53.10
2023-01-02T11:57:33.637Z,52.99
2023-01-02T11:58:33.615Z,52.91
2023-01-02T11:59:33.591Z,52.99
2023-01-02T12:00:33.580Z,52.98
2023-01-02T12:01:33.582Z,52.94
2023-01-02T12:02:33.584Z,52.96
2023-01-02T12:03:33.576Z,52.98
2023-01-02T12:04:33.534Z,53.07
2023-01-02T12:05:33.530Z,53.16
2023-01-02T12:06:33.514Z,53.32
2023-01-02T12:07:33.522Z,53.48
2023-01-02T12:08:39.945Z,53.60
2023-01-02T12:09:34.497Z,53.64
2023-01-02T12:10:33.497Z,53.67
2023-01-02T12:11:33.497Z,53.75
2023-01-02T12:12:33.457Z,53.87
2023-01-02T12:13:33.457Z,53.91
2023-01-02T12:14:33.464Z,53.97
2023-01-02T12:15:33.462Z,53.85
2023-01-02T12:16:33.495Z,53.79
2023-01-02T12:17:33.414Z,53.84
2023-01-02T12:18:33.393Z,53.89
2023-01-02T12:19:33.382Z,53.74
2023-01-02T12:20:33.355Z,53.56
2023-01-02T12:21:33.361Z,53.67
2023-01-02T12:22:33.340Z,53.75
2023-01-02T12:23:33.321Z,53.77
2023-01-02T12:24:33.330Z,53.82
2023-01-02T12:25:33.302Z,53.93
2023-01-02T12:26:33.303Z,53.93
2023-01-02T12:27:33.286Z,53.95
2023-01-02T12:28:33.290Z,54.05
2023-01-02T12:29:46.889Z,54.13
2023-01-02T12:30:34.263Z,54.11
2023-01-02T12:31:33.344Z,54.19
2023-01-02T12:32:33.233Z,54.29
2023-01-02T12:33:33.215Z,54.41
2023-01-02T12:34:33.218Z,54.54
2023-01-02T12:35:33.182Z,54.55
2023-01-02T12:36:33.206Z,54.49
2023-01-02T12:37:33.172Z,54.59
2023-01-02T12:38:33.716Z,54.59
2023-01-02T12:39:33.169Z,54.66
2023-01-02T12:40:33.145Z,54.77
2023-01-02T12:41:33.139Z,54.86
2023-01-02T12:42:33.108Z,54.98
2023-01-02T12:43:33.135Z,55.10
2023-01-02T12:44:33.905Z,55.20
2023-01-02T12:45:33.098Z,55.13
2023-01-02T12:46:33.075Z,55.13
2023-01-02T12:47:33.077Z,55.05
2023-01-02T12:48:33.082Z,55.02
2023-01-02T12:49:33.029Z,55.01
2023-01-02T12:50:33.085Z,55.03
2023-01-02T12:51:33.034Z,55.04
2023-01-02T12:52:33.021Z,55.04